Latest Coastal Weather Observations for Cape Otway

IDV60701

Issued at 8:22 pm EDT Wednesday 7 December 2022 (issued every 10 minutes, with the page automatically refreshed every 10 minutes)

About coastal observations | Map of coastal stations | Coastal observations for VIC | Marine services | Other Formats
Station Details ID: 090015 Name: CAPE OTWAY LIGHTHOUSE Lat: -38.86 Lon: 143.51 Height: 80.0 m
Data from the previous 72 hours. | See also: Recent months at Cape Otway
Date/Time
EDT
Wind Sea
Height
m
Swell Vis
km
Cloud Weather Temp
°C
Press
MSL
hPa
Rain since
9am
mm
Dir  Spd
kts
Gust
kts
Height
m
Period
s
Dir
07/08:02pm WSW 27 37 - - - - - - - 12.7 1007.6 0.8
07/08:00pm WSW 28 37 - - - - - - - 12.7 1007.5 0.8
07/07:31pm WSW 27 37 - - - - - - - 12.7 1007.0 0.8
07/07:30pm WSW 28 37 - - - - - - - 12.6 1007.1 0.8
07/07:00pm WSW 28 38 - - - - - - - 12.9 1006.5 0.8
07/06:31pm SW 29 39 - - - - - - - 12.1 1005.5 0.8
07/06:30pm SW 28 36 - - - - - - - 12.3 1005.5 0.8
07/06:03pm WSW 26 46 - - - - - - - 12.1 1005.1 0.6
07/06:00pm WSW 23 34 - - - - - - Recent precip. 12.3 1005.0 0.6
07/05:30pm W 21 32 - - - - - - - 12.7 1004.8 0.4
07/05:00pm WNW 23 36 - - - - - - - 12.8 1004.3 0.2
07/04:32pm WNW 23 34 - - - - - - - 14.2 1004.4 0.0
07/04:30pm WNW 23 32 - - - - - - - 14.3 1004.5 0.0
07/04:05pm WNW 19 29 - - - - - - - 13.7 1004.7 0.0
07/04:00pm WNW 21 29 - - - - - - - 14.1 1004.6 0.0
07/03:30pm WNW 20 27 - - - - - - - 15.5 1004.8 0.0
07/03:00pm WNW 18 25 - - - - - - - 15.1 1005.0 0.0
07/02:30pm WNW 18 24 - - - - - - - 15.6 1005.1 0.0
07/02:00pm WNW 16 22 - - - - - - - 15.5 1005.2 0.0
07/01:30pm WNW 15 20 - - - - - - - 15.5 1005.3 0.0
07/01:00pm W 15 21 - - - - - - - 15.3 1005.4 0.0
07/12:30pm W 14 19 - - - - - - - 14.8 1005.4 0.0
07/12:00pm W 13 17 - - - - - - - 15.1 1005.5 0.0
07/11:30am W 12 18 - - - - - - - 14.7 1005.3 0.0
07/11:00am W 12 16 - - - - - - - 14.7 1005.2 0.0
07/10:30am WSW 10 14 - - - - - - - 14.2 1005.2 0.0
07/10:00am WSW 12 17 - - - - - - - 14.0 1005.3 0.0
07/09:30am WSW 10 14 - - - - - - - 13.9 1005.3 0.0
07/09:00am SW 10 13 - - - - - - - 13.8 1005.2 0.0
07/08:30am SW 8 11 - - - - - - - 13.8 1005.0 0.0
07/08:00am SW 7 11 - - - - - - - 13.3 1004.7 0.0
07/07:30am WSW 5 8 - - - - - - - 13.1 1004.7 0.0
07/07:00am NW 5 7 - - - - - - - 12.4 1004.7 0.0
07/06:30am NNW 5 7 - - - - - - - 11.4 1004.4 0.0
07/06:00am NNW 6 7 - - - - - - - 10.3 1004.5 0.0
07/05:30am NW 5 7 - - - - - - - 9.8 1004.0 0.0
07/05:00am NNW 5 6 - - - - - - - 8.7 1003.8 0.0
07/04:30am NNW 4 5 - - - - - - - 9.1 1003.9 0.0
07/04:00am N 5 5 - - - - - - - 9.4 1003.9 0.0
07/03:30am NW 5 5 - - - - - - - 9.9 1004.3 0.0
07/03:00am NNE 6 8 - - - - - - - 10.5 1004.6 0.0
07/02:30am NE 7 9 - - - - - - - 11.0 1004.7 0.0
07/02:00am NE 7 9 - - - - - - - 11.3 1005.1 0.0
07/01:30am ENE 9 11 - - - - - - - 11.9 1005.3 0.0
07/01:00am E 9 12 - - - - - - - 11.8 1005.3 0.0
07/12:30am ENE 7 9 - - - - - - - 11.7 1006.1 0.0
07/12:00am ENE 7 8 - - - - - - - 11.7 1006.7 0.0
 
Date/Time
EDT
Wind Sea
Height
m
Swell Vis
km
Cloud Weather Temp
°C
Press
MSL
hPa
Rain since
9am
mm
Dir  Spd
kts
Gust
kts
Height
m
Period
s
Dir
06/11:30pm ENE 6 8 - - - - - - - 11.3 1007.1 0.0
06/11:00pm ENE 6 7 - - - - - - - 11.7 1007.3 0.0
06/10:30pm ENE 5 7 - - - - - - - 11.7 1007.7 0.0
06/10:00pm E 6 7 - - - - - - - 11.9 1007.8 0.0
06/09:30pm E 6 8 - - - - - - - 12.1 1007.8 0.0
06/09:00pm E 7 10 - - - - - - - 12.6 1008.0 0.0
06/08:30pm E 6 9 - - - - - - - 13.3 1008.1 0.0
06/08:00pm E 7 10 - - - - - - - 13.7 1008.0 0.0
06/07:30pm E 6 10 - - - - - - - 14.7 1008.0 0.0
06/07:00pm ESE 9 13 - - - - - - - 14.4 1008.1 0.0
06/06:30pm ESE 8 13 - - - - - - - 15.1 1008.2 0.0
06/06:00pm ESE 9 13 - - - - - - - 15.5 1008.2 0.0
06/05:30pm ESE 8 13 - - - - - - - 15.4 1008.7 0.0
06/05:00pm ESE 10 14 - - - - - - - 15.3 1009.0 0.0
06/04:30pm ESE 11 15 - - - - - - - 15.3 1008.9 0.0
06/04:00pm ESE 11 15 - - - - - - - 15.4 1009.6 0.0
06/03:30pm ESE 12 16 - - - - - - - 15.9 1009.6 0.0
06/03:00pm ESE 13 18 - - - - - - - 15.8 1009.8 0.0
06/02:30pm ESE 14 17 - - - - - - - 16.1 1009.9 0.0
06/02:00pm ESE 15 17 - - - - - - - 16.5 1010.3 0.0
06/01:30pm SE 14 18 - - - - - - - 15.8 1010.6 0.0
06/01:00pm SE 14 17 - - - - - - - 16.0 1010.9 0.0
06/12:30pm SE 12 15 - - - - - - - 15.9 1011.5 0.0
06/12:00pm SE 10 13 - - - - - - - 16.3 1011.7 0.0
06/11:30am SE 9 12 - - - - - - - 16.4 1012.1 0.0
06/11:00am SE 11 13 - - - - - - - 15.9 1012.3 0.0
06/10:30am ESE 11 14 - - - - - - - 15.9 1012.4 0.0
06/10:00am ESE 10 15 - - - - - - - 16.2 1012.1 0.0
06/09:30am ESE 8 14 - - - - - - - 15.3 1012.5 0.0
06/09:00am ESE 8 14 - - - - - - - 14.4 1012.7 0.4
06/08:30am ESE 10 12 - - - - - - - 14.2 1012.7 0.4
06/08:00am SSE 7 11 - - - - - - - 14.5 1012.7 0.4
06/07:30am W 5 7 - - - - - - - 13.7 1012.5 0.4
06/07:00am W 6 9 - - - - - - - 13.2 1012.2 0.4
06/06:30am WSW 7 11 - - - - - - - 13.2 1012.3 0.4
06/06:00am WSW 6 9 - - - - - - - 13.1 1012.2 0.4
06/05:30am WSW 6 10 - - - - - - - 13.1 1012.2 0.4
06/05:00am WSW 8 11 - - - - - - - 12.9 1012.4 0.4
06/04:30am WSW 9 12 - - - - - - - 12.8 1012.4 0.4
06/04:00am WSW 9 13 - - - - - - - 12.8 1012.6 0.4
06/03:30am WSW 8 11 - - - - - - - 12.8 1012.7 0.4
06/03:00am WSW 7 10 - - - - - - - 12.7 1012.9 0.4
06/02:30am WSW 8 12 - - - - - - - 12.7 1013.1 0.4
06/02:00am WSW 10 15 - - - - - - - 12.7 1013.3 0.4
06/01:30am WSW 8 13 - - - - - - - 12.6 1013.4 0.4
06/01:00am WSW 10 16 - - - - - - - 12.6 1013.8 0.4
06/12:30am WSW 9 14 - - - - - - - 12.7 1013.9 0.4
06/12:00am WSW 11 16 - - - - - - - 12.9 1014.1 0.4
 
Date/Time
EDT
Wind Sea
Height
m
Swell Vis
km
Cloud Weather Temp
°C
Press
MSL
hPa
Rain since
9am
mm
Dir  Spd
kts
Gust
kts
Height
m
Period
s
Dir
05/11:30pm WSW 11 16 - - - - - - - 12.7 1014.5 0.4
05/11:00pm WSW 9 14 - - - - - - - 12.7 1014.9 0.4
05/10:30pm SW 11 15 - - - - - - - 13.0 1015.0 0.4
05/10:00pm WSW 11 15 - - - - - - - 12.9 1015.1 0.4
05/09:30pm SW 12 19 - - - - - - - 12.7 1015.0 0.4
05/09:00pm SW 13 22 - - - - - - - 13.0 1014.9 0.4
05/08:30pm SW 11 18 - - - - - - - 12.8 1014.8 0.4
05/08:00pm SW 13 19 - - - - - - - 13.0 1014.6 0.4
05/07:45pm SW 16 26 - - - - - - - 13.4 1014.6 0.4
05/07:30pm SW 15 21 - - - - - - - 13.1 1014.5 0.4
05/07:13pm SSW 16 26 - - - - - - - 13.1 1014.4 0.4
05/07:00pm SW 19 27 - - - - - - - 13.2 1014.2 0.4
05/06:30pm SW 16 27 - - - - - - - 13.3 1014.0 0.4
05/06:27pm SW 18 28 - - - - - - - 13.0 1013.8 0.4
05/06:00pm SSW 19 27 - - - - - - Recent precip. 12.9 1013.7 0.2
05/05:30pm SW 19 26 - - - - - - - 13.0 1013.7 0.0
05/05:00pm SW 20 27 - - - - - - - 13.5 1013.7 0.0
05/04:30pm SSW 20 28 - - - - - - - 13.3 1013.5 0.0
05/04:20pm SSW 21 31 - - - - - - - 13.3 1013.7 0.0
05/04:00pm SSW 21 29 - - - - - - - 13.0 1013.7 0.0
05/03:30pm SW 21 28 - - - - - - - 13.3 1013.6 0.0
05/03:00pm SSW 20 27 - - - - - - - 13.5 1013.5 0.0
05/02:30pm SSW 24 30 - - - - - - - 13.9 1013.5 0.0
05/02:00pm SSW 21 29 - - - - - - - 13.8 1013.5 0.0
05/01:30pm SSW 21 29 - - - - - - - 13.8 1013.4 0.0
05/01:00pm SSW 21 27 - - - - - - - 14.0 1013.2 0.0
05/12:30pm SSW 22 28 - - - - - - - 13.8 1012.9 0.0
05/12:00pm SSW 21 29 - - - - - - - 14.1 1012.6 0.0
05/11:30am SW 21 31 - - - - - - - 13.6 1012.5 0.0
05/11:12am SSW 21 31 - - - - - - - 13.4 1012.4 0.0
05/11:00am SSW 21 28 - - - - - - - 13.6 1012.4 0.0
05/10:47am SSW 21 31 - - - - - - - 13.5 1012.1 0.0
05/10:30am SSW 21 29 - - - - - - - 13.3 1012.3 0.0
05/10:02am SSW 19 29 - - - - - - - 13.7 1012.0 0.0
05/10:00am SSW 19 25 - - - - - - - 13.7 1012.1 0.0
05/09:30am SW 18 28 - - - - - - - 13.5 1011.8 0.0
05/09:02am SSW 20 30 - - - - - - - 13.5 1011.5 0.0
05/09:00am SSW 21 27 - - - - - - - 13.9 1011.6 0.0
05/08:48am SSW 20 30 - - - - - - - 13.3 1011.5 0.0
05/08:30am SSW 24 30 - - - - - - - 13.7 1011.3 0.0
05/08:00am SSW 22 30 - - - - - - - 14.1 1010.8 0.0
05/07:30am SSW 21 27 - - - - - - - 14.0 1010.4 0.0
05/07:00am SSW 20 29 - - - - - - - 14.2 1010.0 0.0
05/06:30am SSW 21 31 - - - - - - - 14.4 1009.8 0.0
05/06:03am SSW 22 33 - - - - - - - 14.3 1009.4 0.0
05/06:00am SSW 20 29 - - - - - - - 14.7 1009.4 0.0
05/05:33am SSW 22 32 - - - - - - - 14.5 1008.8 0.0
05/05:30am SSW 23 32 - - - - - - - 14.4 1008.9 0.0
05/05:29am SSW 22 32 - - - - - - - 14.4 1008.8 0.0
05/05:00am SSW 24 31 - - - - - - - 14.5 1008.3 0.0
05/04:30am SW 20 27 - - - - - - - 14.5 1007.8 0.0
05/04:00am SW 21 29 - - - - - - - 14.4 1007.4 0.0
05/03:30am SW 20 28 - - - - - - - 14.5 1007.1 0.0
05/03:00am SW 22 28 - - - - - - - 15.0 1006.7 0.0
05/02:30am W 15 26 - - - - - - - 15.5 1006.5 0.0
05/02:00am W 14 19 - - - - - - - 15.7 1006.3 0.0
05/01:30am WNW 15 20 - - - - - - - 15.7 1006.4 0.0
05/01:00am W 16 23 - - - - - - - 15.7 1006.3 0.0
05/12:30am WNW 14 21 - - - - - - - 16.0 1006.6 0.0
05/12:00am WNW 16 21 - - - - - - - 16.0 1007.3 0.0
 
Date/Time
EDT
Wind Sea
Height
m
Swell Vis
km
Cloud Weather Temp
°C
Press
MSL
hPa
Rain since
9am
mm
Dir  Spd
kts
Gust
kts
Height
m
Period
s
Dir
04/11:30pm WNW 15 21 - - - - - - - 15.9 1007.0 0.0
04/11:00pm WNW 13 19 - - - - - - - 16.2 1007.1 0.0
04/10:30pm WNW 15 21 - - - - - - - 16.4 1007.1 0.0
04/10:00pm WNW 16 22 - - - - - - - 16.8 1007.1 0.0
04/09:30pm WNW 14 19 - - - - - - - 17.7 1006.7 0.0
04/09:00pm WNW 13 17 - - - - - - - 18.7 1006.4 0.0
04/08:30pm NW 11 16 - - - - - - - 19.0 1005.9 0.0

Other formats

Comma delimited format used in spreadsheet applications
http://www.bom.gov.au/fwo/IDV60701/IDV60701.94842.axf

JavaScript Object Notation format (JSON) in row-major order
http://www.bom.gov.au/fwo/IDV60701/IDV60701.94842.json

Data quality

Most of these data are generated automatically and are frequently updated. Quality checks on data are not normally performed. It is possible for incorrect values to appear. Refer to information at About Latest Weather Observations and please check the disclaimer before using these data.